Barbados Meteorological Services
Auto gathered TAF list
Powered by Apparatus software
For Flight TOM109
Contact Number 1-(246)-535-0021/2/3/4/5/6
WEB: http://www.barbadosweather.org

**********************************************

2018/01/21 18:10
TAF TBPB 211700Z 2118/2218 08019KT 9999 SCT018
TEMPO 2118/2124 09019G39KT 5000 SHRA BKN015


**********************************************
2018/01/21 18:15
TAF TAF TAPA 211700Z 2118/2218 07012KT 9999 SCT020 PROB30
TEMPO 2206/2214 SHRA


**********************************************
2018/01/21 19:07
TAF
AMD LPPR 211902Z 2119/2218 VRB03KT 6000 SCT004 BKN012
BECMG 2121/2124 3000 BR SCT002 BKN004
TEMPO 2200/2208 0200 FG VV001
BECMG 2211/2213 30007KT 9999 NSW SCT008 BKN012


**********************************************
2018/01/21 18:18
TAF LPPD 211700Z 2118/2218 21012KT 9999 FEW015 BKN035 PROB40
TEMPO 2118/2218 6000 -RADZ SCT006 BKN012


**********************************************
2018/01/21 18:09
TAF LPLA 211703Z 2118/2218 20012KT 9999 FEW015 SCT025
TEMPO 2112/2212 21015G25KT
TEMPO 2212/2218 5000 RADZ BR SCT007 BKN014


**********************************************
2018/01/21 18:20
TAF LPAZ 211700Z 2118/2224 18012KT 9999 FEW015 BKN035 PROB30
TEMPO 2118/2224 6000 -RADZ SCT006 BKN012


**********************************************
2018/01/21 18:27
TAF LEVT 211700Z 2118/2218 32008KT 9999 SCT010 BKN020 TX14/2214Z TN03/2206Z PROB40
TEMPO 2203/2209 0350 BCFG BKN001


**********************************************
2018/01/21 18:27
TAF LEMD 211700Z 2118/2224 VRB05KT CAVOK TX16/2215Z TN01/2206Z PROB40
TEMPO 2202/2211 3000 BR BCFG NSC PROB40
TEMPO 2203/2210 0350 FG VV001


**********************************************
2018/01/21 18:27
TAF TAF ELLX 211700Z 2118/2224 18008KT 9999 BKN015
BECMG 2119/2122 2500 -SNRA BR BKN008
TEMPO 2121/2202 0700 SN OVC001 PROB40
TEMPO 2121/2123 -FZRA
TEMPO 2202/2211 2000 DZRA BKN003 PROB40
TEMPO 2202/2206 0300 FG BKN001
BECMG 2211/2214 30008KT 7000 NSW BKN012
TEMPO 2211/2218 4000 SHRA BKN009


**********************************************
2018/01/21 18:15
TAF EGPK 211656Z 2118/2218 19009KT 9999 SCT020
BECMG 2118/2121 25015G25KT
TEMPO 2118/2120 7000 RA BKN012 PROB30
TEMPO 2120/2209 8000 -SHRA BKN012


**********************************************
2018/01/21 18:15
TAF TAF EGLL 211701Z 2118/2224 17006KT 6000 -RADZ SCT006 BKN010
BECMG 2118/2120 25010KT
TEMPO 2118/2123 3000 RADZ BKN006 PROB30
TEMPO 2118/2123 BKN004
BECMG 2123/2202 9999 NSW SCT030 PROB30 2202/2211 6000


**********************************************
2018/01/21 18:15
TAF EGKK 211707Z 2118/2224 15007KT 6000 -RA BKN006
BECMG 2118/2121 27010KT
TEMPO 2118/2122 3000 RADZ BR BKN004
BECMG 2121/2124 9999 NSW SCT025 PROB30 2202/2209 8000


**********************************************
2018/01/21 18:15
TAF EGFF 211703Z 2118/2218 27022G33KT 2000 RADZ BR BKN002
BECMG 2118/2121 9999 NSW SCT015 PROB40
TEMPO 2118/2120 BKN001
BECMG 2122/2201 27012KT


**********************************************
2018/01/21 18:15
TAF EGCC 211703Z 2118/2224 17008KT 9999 BKN008
TEMPO 2118/2120 2000 RADZ BKN003
BECMG 2119/2122 27010KT SCT015


**********************************************
2018/01/21 18:27
TAF TAF EDDF 211700Z 2118/2224 17004KT 9999 SCT030
BECMG 2123/2201 4000 -SN BKN012 PROB40
TEMPO 2201/2205 1200 SN BKN004 PROB40
TEMPO 2205/2207 1200 -FZRA BCFG BKN004
BECMG 2205/2208 2000 -RA BR BKN006 PROB40
TEMPO 2207/2212 1000 BCFG BKN003
BECMG 2213/2217 27006KT 6000 BKN015


**********************************************
2018/01/21 18:27
TAF TAF EBBR 211720Z 2118/2224 16006KT 7000 BKN018
TEMPO 2118/2206 BKN012 PROB40
TEMPO 2118/2123 3800 RASN RADZ BKN005 PROB40
TEMPO 2123/2205 BKN005
BECMG 2200/2202 21010KT PROB30
TEMPO 2201/2205 1800 BR DZ BKN003
BECMG 2203/2205 27010KT


**********************************************